Terminal Aerodrome Forecast
Issued by NWS

Home | Current Version | Previous Version | Text Only | Print | Product List | Glossary On
Versions: 1 2 3 4 5 6 7 8 9 10 11 12 13
000
FTUS42 TJSJ 221100
TAFJMZ
TAF
TJMZ 221122Z 2212/2312 06010KT P6SM VCSH SCT025 BKN040
     FM221300 09012KT P6SM VCTS SCT020CB BKN040 OVC060
      TEMPO 2213/2216 VRB10G22KT 4SM TSRA BKN030CB BKN040 OVC060
     FM222000 12010KT P6SM VCSH BKN025
      AMD NOT SKED TIL 221600=

USA.gov is the U.S. government's official web portal to all federal, state and local government web resources and services.